Percival, Iowa
Current Conditions -  °F | °C
As of 8:55 PM on Monday 22 Dec 2014 (Local Time) from KAFK Reporting Station
Overcast Overcast  
Wind Chill: 30°   Ceiling: 7500
Heat Index: 38°   Visibility: 10mi
Dew Point: 38°   Wind: 14mph
Humidity: 98%   Direction: 310°NW
Pressure: 29.46"   Gusts: NA
Location:  40.75°N, 95.81°W
Report Text: KAFK 230255Z AUTO 31012KT 10SM OVC075 04/03 A2946 RMK AO2 T00350032
Loading
Personal Weather Stations






























Interactive Weather Map New forecast layout! Learn more

10-Day Weather Forecast

Advertisements
Track Severe Weather on mobile